Polynesia — A8RO9 — position and weather

sailwx.info

Track history (hours):
 
Tides and Currents Weather Stations Pressure Air Temp Water Temp Dewpoint Dewpoint Depression Visibility Wind Speed Wind Dir Waves Ship Positions

Polynesia

Last reported at 2017-Nov-19 14:58 UTC. Time now 2017-Nov-19 15:37 UTC.
Position N 39°51' W 075°20'.

Length 161 m; draft 9.2 m.

Type: Ship (hazmat cat A). MMSI: 636091690.

Date/timePositionNaut miles runAvg speedWind from/ knotsBaromVisibWave heightAir tempDewpointWater temp
2017-Nov-19 14:58N 39°51' W 075°20'0 0.0
2017-Nov-19 14:28N 39°51' W 075°20'0 0.0
2017-Nov-19 13:58N 39°51' W 075°20'0 0.4
2017-Nov-19 13:31N 39°51' W 075°20'3 6.5
2017-Nov-19 13:01N 39°49' W 075°24'510.1
2017-Nov-19 12:30N 39°46' W 075°29'510.7
2017-Nov-19 12:01N 39°41' W 075°31'612.1
2017-Nov-19 11:30N 39°35' W 075°33'612.4
2017-Nov-19 11:00N 39°29' W 075°34'713.8
2017-Nov-19 10:30N 39°23' W 075°29'714.8
2017-Nov-19 10:00N 39°18' W 075°22'815.0
2017-Nov-19 09:30N 39°11' W 075°17'815.4
2017-Nov-19 09:01N 39°05' W 075°11'815.6
2017-Nov-19 08:29N 38°57' W 075°07'1112.6
2017-Nov-19 07:38N 38°47' W 075°03'1 6.5
2017-Nov-19 07:30N 38°47' W 075°02'74316.8
2017-Nov-17 11:10N 27°04' W 079°50'3618.9
2017-Nov-17 09:17N 26°29' W 079°56'519.1
2017-Nov-17 09:01N 26°24' W 079°57'918.7
2017-Nov-17 08:30N 26°15' W 079°58'919.1
2017-Nov-17 08:01N 26°05' W 079°60'918.7
2017-Nov-17 07:30N 25°56' W 080°02'816.2
2017-Nov-17 07:01N 25°48' W 080°04'4 8.9
2017-Nov-17 06:30N 25°46' W 080°08'2 4.0
2017-Nov-17 06:00N 25°46' W 080°10'0 0.5
2017-Nov-17 05:30N 25°46' W 080°10'0 0.0
2017-Nov-17 05:00N 25°46' W 080°10'0 0.0
2017-Nov-17 04:30N 25°46' W 080°10'0 0.0
2017-Nov-17 04:00N 25°46' W 080°10'0 0.0
2017-Nov-17 03:30N 25°46' W 080°10'0 0.0
2017-Nov-17 03:00N 25°46' W 080°10'0 0.0
2017-Nov-17 02:30N 25°46' W 080°10'0 0.0
2017-Nov-17 02:00N 25°46' W 080°10'0 0.0
2017-Nov-17 01:27N 25°46' W 080°10'0 0.0
2017-Nov-17 00:57N 25°46' W 080°10'0 0.0
2017-Nov-17 00:30N 25°46' W 080°10'0 0.0
2017-Nov-16 23:54N 25°46' W 080°10'1 1.4
2017-Nov-16 23:31N 25°46' W 080°09'4 8.7
2017-Nov-16 23:00N 25°46' W 080°04'0 0.9
2017-Nov-16 22:31N 25°46' W 080°04'0 0.4
2017-Nov-16 22:00N 25°46' W 080°04'1 2.4
2017-Nov-16 21:30N 25°46' W 080°03'1 1.7
2017-Nov-16 21:01N 25°46' W 080°02'0 0.2
2017-Nov-16 20:30N 25°46' W 080°02'0 0.9
2017-Nov-16 20:01N 25°46' W 080°02'714.1
2017-Nov-16 19:31N 25°39' W 080°02'917.7
2017-Nov-16 19:00N 25°30' W 080°02'  
Track history (hours):
 
Tides and Currents Weather Stations Pressure Air Temp Water Temp Dewpoint Dewpoint Depression Visibility Wind Speed Wind Dir Waves Ship Positions

Polynesia

Last reported at 2017-Nov-19 14:58 UTC. Time now 2017-Nov-19 15:37 UTC.
Position N 39°51' W 075°20'.

Length 161 m; draft 9.2 m.

Type: Ship (hazmat cat A). MMSI: 636091690.

Date/timePositionNaut miles runAvg speedWind from/ knotsBaromVisibWave heightAir tempDewpointWater temp
2017-Nov-19 14:58N 39°51' W 075°20'0 0.0
2017-Nov-19 14:28N 39°51' W 075°20'0 0.0
2017-Nov-19 13:58N 39°51' W 075°20'0 0.4
2017-Nov-19 13:31N 39°51' W 075°20'3 6.5
2017-Nov-19 13:01N 39°49' W 075°24'510.1
2017-Nov-19 12:30N 39°46' W 075°29'510.7
2017-Nov-19 12:01N 39°41' W 075°31'612.1
2017-Nov-19 11:30N 39°35' W 075°33'612.4
2017-Nov-19 11:00N 39°29' W 075°34'713.8
2017-Nov-19 10:30N 39°23' W 075°29'714.8
2017-Nov-19 10:00N 39°18' W 075°22'815.0
2017-Nov-19 09:30N 39°11' W 075°17'815.4
2017-Nov-19 09:01N 39°05' W 075°11'815.6
2017-Nov-19 08:29N 38°57' W 075°07'1112.6
2017-Nov-19 07:38N 38°47' W 075°03'1 6.5
2017-Nov-19 07:30N 38°47' W 075°02'74316.8
2017-Nov-17 11:10N 27°04' W 079°50'3618.9
2017-Nov-17 09:17N 26°29' W 079°56'519.1
2017-Nov-17 09:01N 26°24' W 079°57'918.7
2017-Nov-17 08:30N 26°15' W 079°58'919.1
2017-Nov-17 08:01N 26°05' W 079°60'918.7
2017-Nov-17 07:30N 25°56' W 080°02'816.2
2017-Nov-17 07:01N 25°48' W 080°04'4 8.9
2017-Nov-17 06:30N 25°46' W 080°08'2 4.0
2017-Nov-17 06:00N 25°46' W 080°10'0 0.5
2017-Nov-17 05:30N 25°46' W 080°10'0 0.0
2017-Nov-17 05:00N 25°46' W 080°10'0 0.0
2017-Nov-17 04:30N 25°46' W 080°10'0 0.0
2017-Nov-17 04:00N 25°46' W 080°10'0 0.0
2017-Nov-17 03:30N 25°46' W 080°10'0 0.0
2017-Nov-17 03:00N 25°46' W 080°10'0 0.0
2017-Nov-17 02:30N 25°46' W 080°10'0 0.0
2017-Nov-17 02:00N 25°46' W 080°10'0 0.0
2017-Nov-17 01:27N 25°46' W 080°10'0 0.0
2017-Nov-17 00:57N 25°46' W 080°10'0 0.0
2017-Nov-17 00:30N 25°46' W 080°10'0 0.0
2017-Nov-16 23:54N 25°46' W 080°10'1 1.4
2017-Nov-16 23:31N 25°46' W 080°09'4 8.7
2017-Nov-16 23:00N 25°46' W 080°04'0 0.9
2017-Nov-16 22:31N 25°46' W 080°04'0 0.4
2017-Nov-16 22:00N 25°46' W 080°04'1 2.4
2017-Nov-16 21:30N 25°46' W 080°03'1 1.7
2017-Nov-16 21:01N 25°46' W 080°02'0 0.2
2017-Nov-16 20:30N 25°46' W 080°02'0 0.9
2017-Nov-16 20:01N 25°46' W 080°02'714.1
2017-Nov-16 19:31N 25°39' W 080°02'917.7
2017-Nov-16 19:00N 25°30' W 080°02'  

Dump ship's entire track history